createdAt,value
2023-02-03T00:01:58.381Z,0.70
2023-02-03T00:07:27.387Z,0.70
2023-02-03T00:12:35.913Z,0.95
2023-02-03T00:17:39.156Z,0.85
2023-02-03T00:23:05.384Z,0.85
2023-02-03T00:28:20.969Z,1.00
2023-02-03T00:33:24.439Z,0.68
2023-02-03T00:38:29.799Z,0.77
2023-02-03T00:43:36.521Z,0.85
2023-02-03T00:48:39.917Z,0.60
2023-02-03T00:53:50.426Z,0.75
2023-02-03T00:59:03.043Z,0.75
2023-02-03T01:04:06.620Z,0.63
2023-02-03T01:09:23.336Z,0.90
2023-02-03T01:14:36.684Z,1.00
2023-02-03T01:19:43.264Z,0.95
2023-02-03T01:24:56.627Z,0.70
2023-02-03T01:30:10.744Z,0.95
2023-02-03T01:35:14.007Z,0.77
2023-02-03T01:40:18.575Z,1.33
2023-02-03T01:45:41.572Z,1.20
2023-02-03T01:50:47.061Z,0.82
2023-02-03T01:55:59.489Z,0.98
2023-02-03T02:01:14.335Z,0.77
2023-02-03T02:06:21.457Z,0.77
2023-02-03T02:11:32.945Z,0.80
2023-02-03T02:16:48.631Z,1.10
2023-02-03T02:22:08.376Z,0.60
2023-02-03T02:27:54.474Z,1.00
2023-02-03T02:33:12.975Z,1.07
2023-02-03T02:38:24.829Z,0.80
2023-02-03T02:43:37.041Z,0.60
2023-02-03T02:48:53.615Z,0.50
2023-02-03T02:54:15.198Z,1.00
2023-02-03T02:59:25.578Z,0.47
2023-02-03T03:04:50.333Z,0.70
2023-02-03T03:09:57.407Z,0.43
2023-02-03T03:15:05.232Z,0.40
2023-02-03T03:20:25.636Z,0.67
2023-02-03T03:25:38.465Z,0.50
2023-02-03T03:30:51.982Z,0.57
2023-02-03T03:36:03.377Z,0.60
2023-02-03T03:41:20.142Z,0.60
2023-02-03T03:46:28.284Z,0.60
2023-02-03T03:51:44.409Z,0.60
2023-02-03T03:57:15.703Z,0.40
2023-02-03T04:02:31.178Z,0.60
2023-02-03T04:07:42.602Z,0.60
2023-02-03T04:12:46.953Z,0.45
2023-02-03T04:17:57.682Z,0.55
2023-02-03T04:23:03.542Z,0.60
2023-02-03T04:28:17.821Z,0.65
2023-02-03T04:33:21.176Z,0.32
2023-02-03T04:38:26.868Z,0.45
2023-02-03T04:43:41.324Z,0.70
2023-02-03T04:49:00.668Z,0.63
2023-02-03T04:54:13.409Z,0.60
2023-02-03T04:59:16.651Z,0.68
2023-02-03T05:04:28.227Z,0.63
2023-02-03T05:09:39.848Z,0.45
2023-02-03T05:14:44.249Z,0.63
2023-02-03T05:20:06.908Z,0.63
2023-02-03T05:25:11.975Z,0.50
2023-02-03T05:30:18.331Z,0.73
2023-02-03T05:35:23.714Z,0.85
2023-02-03T05:41:19.857Z,0.70
2023-02-03T05:46:23.166Z,0.65
2023-02-03T05:51:35.375Z,0.68
2023-02-03T05:56:59.488Z,0.60
2023-02-03T06:02:04.008Z,0.50
2023-02-03T06:07:07.401Z,0.43
2023-02-03T06:12:12.219Z,0.70
2023-02-03T06:17:18.631Z,0.60
2023-02-03T06:22:22.114Z,0.60
2023-02-03T06:27:33.966Z,0.77
2023-02-03T06:32:37.187Z,0.50
2023-02-03T06:37:46.425Z,0.52
2023-02-03T06:42:51.825Z,0.70
2023-02-03T06:48:23.936Z,0.60
2023-02-03T06:53:27.305Z,0.60
2023-02-03T06:58:33.514Z,0.70
2023-02-03T07:03:40.854Z,0.52
2023-02-03T07:08:47.281Z,0.70
2023-02-03T07:13:53.616Z,0.73
2023-02-03T07:18:56.937Z,0.80
2023-02-03T07:24:00.263Z,0.77
2023-02-03T07:29:05.473Z,1.00
2023-02-03T07:34:08.672Z,0.95
2023-02-03T07:39:11.962Z,0.85
2023-02-03T07:44:16.587Z,1.13
2023-02-03T07:49:19.928Z,0.88
2023-02-03T07:54:23.297Z,1.00
2023-02-03T07:59:28.014Z,1.00
2023-02-03T08:04:31.458Z,0.82
2023-02-03T08:09:34.779Z,1.20
2023-02-03T08:14:39.470Z,0.93
2023-02-03T08:19:43.341Z,0.95
2023-02-03T08:24:47.340Z,0.77
2023-02-03T08:29:52.391Z,0.90
2023-02-03T08:34:56.146Z,0.65
2023-02-03T08:39:59.626Z,0.60
2023-02-03T08:45:05.368Z,0.80
2023-02-03T08:50:10.537Z,0.77
2023-02-03T08:55:13.771Z,0.65
2023-02-03T09:00:20.766Z,0.80
2023-02-03T09:05:24.117Z,0.57
2023-02-03T09:10:27.866Z,0.70
2023-02-03T09:15:32.899Z,0.73
2023-02-03T09:20:36.266Z,0.80
2023-02-03T09:25:39.716Z,0.95
2023-02-03T09:30:44.728Z,0.68
2023-02-03T09:36:37.725Z,0.70
2023-02-03T09:41:57.756Z,0.75
2023-02-03T09:47:12.842Z,0.52
2023-02-03T09:52:20.106Z,0.60
2023-02-03T09:57:25.708Z,0.52
2023-02-03T10:02:51.963Z,0.60
2023-02-03T10:08:09.049Z,0.40
2023-02-03T10:13:21.863Z,0.60
2023-02-03T10:18:30.744Z,0.60
2023-02-03T10:23:37.352Z,0.80
2023-02-03T10:28:45.264Z,0.40
2023-02-03T10:33:51.159Z,0.85
2023-02-03T10:39:05.072Z,0.50
2023-02-03T10:44:09.863Z,0.55
2023-02-03T10:49:16.510Z,0.40
2023-02-03T10:54:32.196Z,0.40
2023-02-03T10:59:38.134Z,0.45
2023-02-03T11:04:42.663Z,0.20
2023-02-03T11:09:45.943Z,0.40
2023-02-03T11:14:50.837Z,0.38
2023-02-03T11:19:59.562Z,0.30
2023-02-03T11:25:05.388Z,0.45
2023-02-03T11:30:14.979Z,0.30
2023-02-03T11:35:24.053Z,0.38
2023-02-03T11:40:30.370Z,0.30
2023-02-03T11:45:39.530Z,0.40
2023-02-03T11:50:48.034Z,0.60
2023-02-03T11:56:21.340Z,0.30
2023-02-03T12:01:46.702Z,0.52
2023-02-03T12:07:18.293Z,0.30
2023-02-03T12:12:38.075Z,0.40
2023-02-03T12:18:03.084Z,0.43
2023-02-03T12:23:18.601Z,0.50
2023-02-03T12:28:35.595Z,0.40
2023-02-03T12:33:44.437Z,0.50
2023-02-03T12:38:54.435Z,0.40
2023-02-03T12:44:03.080Z,0.40
2023-02-03T12:49:16.119Z,0.52
2023-02-03T12:54:34.546Z,0.40
2023-02-03T12:59:41.106Z,0.40
2023-02-03T13:04:48.286Z,0.32
2023-02-03T13:10:00.923Z,0.38
2023-02-03T13:15:15.067Z,0.50
2023-02-03T13:20:22.442Z,0.35
2023-02-03T13:25:35.172Z,0.43
2023-02-03T13:31:06.754Z,0.40
2023-02-03T13:36:30.431Z,0.50
2023-02-03T13:41:42.786Z,0.47
2023-02-03T13:46:49.786Z,0.47
2023-02-03T13:51:53.917Z,0.50
2023-02-03T13:57:02.402Z,0.40
2023-02-03T14:02:32.190Z,0.50
2023-02-03T14:07:39.193Z,0.60
2023-02-03T14:13:01.025Z,0.50
2023-02-03T14:18:32.929Z,0.60
2023-02-03T14:23:43.989Z,0.40
2023-02-03T14:28:51.054Z,0.60
2023-02-03T14:34:13.361Z,0.50
2023-02-03T14:40:07.408Z,0.50
2023-02-03T14:45:25.631Z,0.70
2023-02-03T14:50:38.512Z,0.43
2023-02-03T14:55:52.293Z,0.60
2023-02-03T15:00:58.029Z,0.57
2023-02-03T15:06:05.794Z,0.50
2023-02-03T15:11:27.050Z,0.47
2023-02-03T15:16:31.783Z,0.50
2023-02-03T15:21:43.007Z,0.60
2023-02-03T15:26:56.429Z,0.40
2023-02-03T15:32:08.970Z,0.50
2023-02-03T15:37:18.310Z,0.57
2023-02-03T15:42:30.793Z,0.60
2023-02-03T15:47:47.439Z,0.40
2023-02-03T15:52:57.300Z,0.43
2023-02-03T15:58:00.952Z,0.40
2023-02-03T16:03:25.035Z,0.60
2023-02-03T16:08:39.906Z,0.30
2023-02-03T16:13:48.415Z,0.50
2023-02-03T16:19:00.160Z,0.57
2023-02-03T16:24:05.721Z,0.60
2023-02-03T16:29:33.468Z,0.50
2023-02-03T16:35:26.990Z,0.47
2023-02-03T16:40:50.005Z,0.50
2023-02-03T16:46:14.190Z,0.50
2023-02-03T16:51:27.097Z,0.60
2023-02-03T16:56:54.155Z,0.50
2023-02-03T17:02:09.552Z,0.50
2023-02-03T17:07:15.568Z,0.60
2023-02-03T17:12:18.949Z,0.50
2023-02-03T17:17:49.064Z,0.57
2023-02-03T17:22:54.833Z,0.60
2023-02-03T17:28:25.937Z,0.65
2023-02-03T17:33:29.760Z,0.38
2023-02-03T17:55:12.947Z,0.63
2023-02-03T18:00:32.883Z,0.40
2023-02-03T18:05:41.218Z,0.40
2023-02-03T18:10:49.102Z,0.60
2023-02-03T18:16:17.767Z,0.55
2023-02-03T18:21:48.493Z,0.45
2023-02-03T18:26:53.730Z,0.68
2023-02-03T18:32:17.216Z,0.60
2023-02-03T18:37:28.244Z,0.43
2023-02-03T18:42:39.368Z,0.40
2023-02-03T18:53:29.711Z,0.47
2023-02-03T18:58:41.597Z,0.70
2023-02-03T19:03:45.069Z,0.40
2023-02-03T19:09:01.353Z,0.50
2023-02-03T19:14:14.327Z,0.47
2023-02-03T19:19:19.003Z,0.50
2023-02-03T19:24:25.120Z,0.47
2023-02-03T19:29:34.404Z,0.60
2023-02-03T19:34:37.827Z,0.40
2023-02-03T19:39:50.459Z,0.57
2023-02-03T19:50:41.063Z,0.60
2023-02-03T19:55:46.126Z,0.50
2023-02-03T20:00:59.531Z,0.40
2023-02-03T20:06:04.341Z,0.68
2023-02-03T20:11:09.414Z,0.52
2023-02-03T20:16:23.369Z,0.50
2023-02-03T20:21:27.859Z,0.50
2023-02-03T20:26:56.034Z,0.57
2023-02-03T20:32:01.182Z,0.80
2023-02-03T20:37:05.202Z,0.60
2023-02-03T20:42:18.711Z,0.73
2023-02-03T20:47:25.390Z,0.55
2023-02-03T20:52:34.662Z,0.75
2023-02-03T20:57:38.095Z,0.60
2023-02-03T21:02:57.142Z,0.60
2023-02-03T21:08:00.680Z,0.70
2023-02-03T21:13:17.266Z,0.60
2023-02-03T21:18:39.652Z,0.70
2023-02-03T21:23:47.706Z,0.50
2023-02-03T21:29:00.719Z,0.68
2023-02-03T21:34:26.053Z,0.50
2023-02-03T21:39:32.981Z,0.50
2023-02-03T21:44:38.398Z,0.50
2023-02-03T21:49:45.238Z,0.50
2023-02-03T21:54:48.680Z,0.60
2023-02-03T21:59:53.032Z,0.55
2023-02-03T22:05:07.045Z,0.50
2023-02-03T22:10:36.145Z,0.60
2023-02-03T22:15:39.515Z,0.50
2023-02-03T22:20:45.326Z,0.45
2023-02-03T22:25:59.661Z,0.50
2023-02-03T22:31:08.254Z,0.60
2023-02-03T22:36:17.534Z,0.60
2023-02-03T22:41:21.065Z,0.40
2023-02-03T22:46:24.430Z,0.45
2023-02-03T22:51:30.134Z,0.52
2023-02-03T22:56:34.446Z,0.47
2023-02-03T23:01:38.808Z,0.47
2023-02-03T23:06:57.193Z,0.43
2023-02-03T23:12:00.483Z,0.40
2023-02-03T23:17:04.032Z,0.30
2023-02-03T23:22:22.912Z,0.40
2023-02-03T23:27:27.389Z,0.40
2023-02-03T23:32:37.529Z,0.30
2023-02-03T23:38:03.790Z,0.40
2023-02-03T23:43:07.428Z,0.50
2023-02-03T23:48:12.572Z,0.47
2023-02-03T23:53:25.566Z,0.60
2023-02-03T23:58:37.047Z,0.50
